DAOB/TID METAR and TAF weather

Enter ICAO airport designator
Station Type Date Time Source
DAOB METAR 2018/01/22 12:00 UTC NOAA

DAOB 221200Z 26005KT CAVOK 16/06 Q1028


Station Type Date Time Source
DAOB Decoded METAR 2018/01/22 12:00 UTC NOAA

Tiaret, Algeria (DAOB) 35-15N 001-26E 1127M
Jan 22, 2018 - 07:00 AM EST / 2018.01.22 1200 UTC
Wind: from the W (260 degrees) at 6 MPH (5 KT):0
Visibility: greater than 7 mile(s):0
Temperature: 60 F (16 C)
Dew Point: 42 F (6 C)
Relative Humidity: 51%
Pressure (altimeter): 30.36 in. Hg (1028 hPa)
ob: DAOB 221200Z 26005KT CAVOK 16/06 Q1028
cycle: 12

Station Type Date Time Source
DAOB TAF 2018/01/22 12:33 UTC NOAA

TAF DAOB 221100Z 2212/2312 VRB02KT CAVOK


Example: see airport list